sensor_id;sensor_type;location;lat;lon;timestamp;temperature;humidity
49132;DHT22;35149;51.196;6.204;2023-04-21T00:02:05;13.30;56.90
49132;DHT22;35149;51.196;6.204;2023-04-21T00:04:32;13.30;57.00
49132;DHT22;35149;51.196;6.204;2023-04-21T00:06:58;13.30;57.10
49132;DHT22;35149;51.196;6.204;2023-04-21T00:09:29;13.30;57.40
49132;DHT22;35149;51.196;6.204;2023-04-21T00:11:58;13.20;57.20
49132;DHT22;35149;51.196;6.204;2023-04-21T00:14:25;13.20;57.50
49132;DHT22;35149;51.196;6.204;2023-04-21T00:16:54;13.20;57.50
49132;DHT22;35149;51.196;6.204;2023-04-21T00:19:20;13.20;57.70
49132;DHT22;35149;51.196;6.204;2023-04-21T00:21:50;13.10;57.70
49132;DHT22;35149;51.196;6.204;2023-04-21T00:24:16;13.10;57.70
49132;DHT22;35149;51.196;6.204;2023-04-21T00:26:44;13.10;57.60
49132;DHT22;35149;51.196;6.204;2023-04-21T00:29:10;13.10;57.90
49132;DHT22;35149;51.196;6.204;2023-04-21T00:31:42;13.00;58.10
49132;DHT22;35149;51.196;6.204;2023-04-21T00:34:11;13.10;58.80
49132;DHT22;35149;51.196;6.204;2023-04-21T00:36:38;13.10;58.30
49132;DHT22;35149;51.196;6.204;2023-04-21T00:39:04;13.00;58.30
49132;DHT22;35149;51.196;6.204;2023-04-21T00:41:32;13.00;58.40
49132;DHT22;35149;51.196;6.204;2023-04-21T00:44:07;13.00;58.50
49132;DHT22;35149;51.196;6.204;2023-04-21T00:46:34;13.00;59.20
49132;DHT22;35149;51.196;6.204;2023-04-21T00:49:06;13.00;58.60
49132;DHT22;35149;51.196;6.204;2023-04-21T00:51:34;13.10;59.00
49132;DHT22;35149;51.196;6.204;2023-04-21T00:54:07;13.00;58.50
49132;DHT22;35149;51.196;6.204;2023-04-21T00:56:34;13.00;59.00
49132;DHT22;35149;51.196;6.204;2023-04-21T00:59:02;13.00;58.40
49132;DHT22;35149;51.196;6.204;2023-04-21T01:01:31;13.00;58.60
49132;DHT22;35149;51.196;6.204;2023-04-21T01:04:00;13.00;58.60
49132;DHT22;35149;51.196;6.204;2023-04-21T01:06:32;13.00;58.60
49132;DHT22;35149;51.196;6.204;2023-04-21T01:09:02;13.00;59.30
49132;DHT22;35149;51.196;6.204;2023-04-21T01:11:30;13.00;58.80
49132;DHT22;35149;51.196;6.204;2023-04-21T01:14:01;13.00;58.80
49132;DHT22;35149;51.196;6.204;2023-04-21T01:16:28;13.00;59.10
49132;DHT22;35149;51.196;6.204;2023-04-21T01:18:55;13.00;59.00
49132;DHT22;35149;51.196;6.204;2023-04-21T01:21:21;13.00;59.10
49132;DHT22;35149;51.196;6.204;2023-04-21T01:23:49;13.00;59.20
49132;DHT22;35149;51.196;6.204;2023-04-21T01:26:18;13.00;59.20
49132;DHT22;35149;51.196;6.204;2023-04-21T01:28:44;13.00;59.30
49132;DHT22;35149;51.196;6.204;2023-04-21T01:31:14;13.00;59.30
49132;DHT22;35149;51.196;6.204;2023-04-21T01:33:42;13.00;59.20
49132;DHT22;35149;51.196;6.204;2023-04-21T01:36:09;13.00;59.20
49132;DHT22;35149;51.196;6.204;2023-04-21T01:38:44;13.00;59.30
49132;DHT22;35149;51.196;6.204;2023-04-21T01:41:11;13.00;60.10
49132;DHT22;35149;51.196;6.204;2023-04-21T01:43:38;13.00;59.10
49132;DHT22;35149;51.196;6.204;2023-04-21T01:46:07;13.00;59.10
49132;DHT22;35149;51.196;6.204;2023-04-21T01:48:36;13.00;59.50
49132;DHT22;35149;51.196;6.204;2023-04-21T01:51:05;12.90;59.30
49132;DHT22;35149;51.196;6.204;2023-04-21T01:53:31;13.00;59.60
49132;DHT22;35149;51.196;6.204;2023-04-21T01:56:00;13.00;59.50
49132;DHT22;35149;51.196;6.204;2023-04-21T01:58:29;13.00;59.60
49132;DHT22;35149;51.196;6.204;2023-04-21T02:01:01;12.90;59.70
49132;DHT22;35149;51.196;6.204;2023-04-21T02:03:27;13.00;59.80
49132;DHT22;35149;51.196;6.204;2023-04-21T02:06:02;13.00;60.00
49132;DHT22;35149;51.196;6.204;2023-04-21T02:08:29;13.00;59.90
49132;DHT22;35149;51.196;6.204;2023-04-21T02:10:56;13.00;60.00
49132;DHT22;35149;51.196;6.204;2023-04-21T02:13:25;13.00;59.90
49132;DHT22;35149;51.196;6.204;2023-04-21T02:15:53;13.00;60.10
49132;DHT22;35149;51.196;6.204;2023-04-21T02:18:38;13.00;60.10
49132;DHT22;35149;51.196;6.204;2023-04-21T02:21:05;13.00;60.10
49132;DHT22;35149;51.196;6.204;2023-04-21T02:23:33;13.00;60.20
49132;DHT22;35149;51.196;6.204;2023-04-21T02:26:00;13.00;60.20
49132;DHT22;35149;51.196;6.204;2023-04-21T02:28:31;13.00;60.40
49132;DHT22;35149;51.196;6.204;2023-04-21T02:30:57;13.00;60.50
49132;DHT22;35149;51.196;6.204;2023-04-21T02:33:24;13.00;60.70
49132;DHT22;35149;51.196;6.204;2023-04-21T02:35:50;13.00;60.40
49132;DHT22;35149;51.196;6.204;2023-04-21T02:38:17;13.00;60.40
49132;DHT22;35149;51.196;6.204;2023-04-21T02:40:44;13.00;60.50
49132;DHT22;35149;51.196;6.204;2023-04-21T02:43:13;13.00;60.50
49132;DHT22;35149;51.196;6.204;2023-04-21T02:45:39;13.00;60.80
49132;DHT22;35149;51.196;6.204;2023-04-21T02:48:06;13.00;60.70
49132;DHT22;35149;51.196;6.204;2023-04-21T02:50:33;13.00;60.80
49132;DHT22;35149;51.196;6.204;2023-04-21T02:52:59;13.00;60.80
49132;DHT22;35149;51.196;6.204;2023-04-21T02:55:27;13.00;60.80
49132;DHT22;35149;51.196;6.204;2023-04-21T02:57:55;13.00;60.70
49132;DHT22;35149;51.196;6.204;2023-04-21T03:00:23;13.00;60.80
49132;DHT22;35149;51.196;6.204;2023-04-21T03:02:52;12.90;60.60
49132;DHT22;35149;51.196;6.204;2023-04-21T03:05:19;12.90;60.30
49132;DHT22;35149;51.196;6.204;2023-04-21T03:07:46;12.80;60.20
49132;DHT22;35149;51.196;6.204;2023-04-21T03:10:13;12.70;60.10
49132;DHT22;35149;51.196;6.204;2023-04-21T03:12:42;12.70;60.00
49132;DHT22;35149;51.196;6.204;2023-04-21T03:15:09;12.60;60.00
49132;DHT22;35149;51.196;6.204;2023-04-21T03:17:42;12.50;60.00
49132;DHT22;35149;51.196;6.204;2023-04-21T03:20:09;12.50;60.60
49132;DHT22;35149;51.196;6.204;2023-04-21T03:22:38;12.40;60.40
49132;DHT22;35149;51.196;6.204;2023-04-21T03:25:05;12.30;60.20
49132;DHT22;35149;51.196;6.204;2023-04-21T03:27:33;12.30;60.20
49132;DHT22;35149;51.196;6.204;2023-04-21T03:30:00;12.10;59.90
49132;DHT22;35149;51.196;6.204;2023-04-21T03:32:31;12.00;60.10
49132;DHT22;35149;51.196;6.204;2023-04-21T03:34:58;12.00;60.20
49132;DHT22;35149;51.196;6.204;2023-04-21T03:37:24;11.80;60.10
49132;DHT22;35149;51.196;6.204;2023-04-21T03:39:53;11.80;60.10
49132;DHT22;35149;51.196;6.204;2023-04-21T03:42:20;11.70;60.00
49132;DHT22;35149;51.196;6.204;2023-04-21T03:44:48;11.60;59.80
49132;DHT22;35149;51.196;6.204;2023-04-21T03:47:15;11.60;59.70
49132;DHT22;35149;51.196;6.204;2023-04-21T03:49:42;11.50;59.90
49132;DHT22;35149;51.196;6.204;2023-04-21T03:52:14;11.40;60.20
49132;DHT22;35149;51.196;6.204;2023-04-21T03:54:43;11.30;60.30
49132;DHT22;35149;51.196;6.204;2023-04-21T03:57:10;11.40;60.70
49132;DHT22;35149;51.196;6.204;2023-04-21T03:59:36;11.30;61.10
49132;DHT22;35149;51.196;6.204;2023-04-21T04:02:03;11.30;61.30
49132;DHT22;35149;51.196;6.204;2023-04-21T04:04:35;11.30;61.60
49132;DHT22;35149;51.196;6.204;2023-04-21T04:07:06;11.30;61.70
49132;DHT22;35149;51.196;6.204;2023-04-21T04:09:34;11.40;61.80
49132;DHT22;35149;51.196;6.204;2023-04-21T04:12:00;11.40;61.80
49132;DHT22;35149;51.196;6.204;2023-04-21T04:14:29;11.40;61.80
49132;DHT22;35149;51.196;6.204;2023-04-21T04:16:58;11.40;61.50
49132;DHT22;35149;51.196;6.204;2023-04-21T04:19:32;11.40;61.20
49132;DHT22;35149;51.196;6.204;2023-04-21T04:21:59;11.40;61.10
49132;DHT22;35149;51.196;6.204;2023-04-21T04:24:26;11.30;60.50
49132;DHT22;35149;51.196;6.204;2023-04-21T04:26:53;11.30;60.40
49132;DHT22;35149;51.196;6.204;2023-04-21T04:29:21;11.20;60.40
49132;DHT22;35149;51.196;6.204;2023-04-21T04:31:49;11.10;60.50
49132;DHT22;35149;51.196;6.204;2023-04-21T04:34:16;11.10;60.40
49132;DHT22;35149;51.196;6.204;2023-04-21T04:36:43;11.00;60.30
49132;DHT22;35149;51.196;6.204;2023-04-21T04:39:10;10.90;60.40
49132;DHT22;35149;51.196;6.204;2023-04-21T04:41:37;10.90;60.50
49132;DHT22;35149;51.196;6.204;2023-04-21T04:44:04;10.80;60.50
49132;DHT22;35149;51.196;6.204;2023-04-21T04:46:31;10.80;60.60
49132;DHT22;35149;51.196;6.204;2023-04-21T04:48:59;10.70;60.80
49132;DHT22;35149;51.196;6.204;2023-04-21T04:51:26;10.70;61.00
49132;DHT22;35149;51.196;6.204;2023-04-21T04:53:53;10.70;61.20
49132;DHT22;35149;51.196;6.204;2023-04-21T04:56:20;10.60;61.40
49132;DHT22;35149;51.196;6.204;2023-04-21T04:58:47;10.60;61.70
49132;DHT22;35149;51.196;6.204;2023-04-21T05:01:15;10.60;61.80
49132;DHT22;35149;51.196;6.204;2023-04-21T05:03:43;10.60;62.00
49132;DHT22;35149;51.196;6.204;2023-04-21T05:06:10;10.60;62.00
49132;DHT22;35149;51.196;6.204;2023-04-21T05:08:37;10.60;62.20
49132;DHT22;35149;51.196;6.204;2023-04-21T05:11:06;10.60;62.20
49132;DHT22;35149;51.196;6.204;2023-04-21T05:13:33;10.60;62.40
49132;DHT22;35149;51.196;6.204;2023-04-21T05:16:00;10.60;62.60
49132;DHT22;35149;51.196;6.204;2023-04-21T05:18:30;10.60;62.90
49132;DHT22;35149;51.196;6.204;2023-04-21T05:20:56;10.70;63.00
49132;DHT22;35149;51.196;6.204;2023-04-21T05:23:23;10.70;62.90
49132;DHT22;35149;51.196;6.204;2023-04-21T05:25:50;10.70;62.90
49132;DHT22;35149;51.196;6.204;2023-04-21T05:28:16;10.70;63.00
49132;DHT22;35149;51.196;6.204;2023-04-21T05:30:43;10.80;63.20
49132;DHT22;35149;51.196;6.204;2023-04-21T05:33:10;10.80;63.30
49132;DHT22;35149;51.196;6.204;2023-04-21T05:35:37;10.80;63.50
49132;DHT22;35149;51.196;6.204;2023-04-21T05:38:04;10.80;63.60
49132;DHT22;35149;51.196;6.204;2023-04-21T05:40:31;10.90;63.70
49132;DHT22;35149;51.196;6.204;2023-04-21T05:42:58;10.90;63.80
49132;DHT22;35149;51.196;6.204;2023-04-21T05:45:24;10.90;63.70
49132;DHT22;35149;51.196;6.204;2023-04-21T05:47:51;11.00;63.90
49132;DHT22;35149;51.196;6.204;2023-04-21T05:50:18;11.00;63.80
49132;DHT22;35149;51.196;6.204;2023-04-21T05:52:48;11.00;63.90
49132;DHT22;35149;51.196;6.204;2023-04-21T05:55:14;11.10;64.40
49132;DHT22;35149;51.196;6.204;2023-04-21T05:57:41;11.10;64.20
49132;DHT22;35149;51.196;6.204;2023-04-21T06:00:10;11.10;64.20
49132;DHT22;35149;51.196;6.204;2023-04-21T06:02:37;11.10;64.50
49132;DHT22;35149;51.196;6.204;2023-04-21T06:05:06;11.10;64.60
49132;DHT22;35149;51.196;6.204;2023-04-21T06:07:34;11.20;64.40
49132;DHT22;35149;51.196;6.204;2023-04-21T06:10:05;11.20;64.50
49132;DHT22;35149;51.196;6.204;2023-04-21T06:12:32;11.20;64.50
49132;DHT22;35149;51.196;6.204;2023-04-21T06:14:59;11.20;64.60
49132;DHT22;35149;51.196;6.204;2023-04-21T06:17:25;11.30;64.80
49132;DHT22;35149;51.196;6.204;2023-04-21T06:19:52;11.30;64.80
49132;DHT22;35149;51.196;6.204;2023-04-21T06:22:19;11.30;64.90
49132;DHT22;35149;51.196;6.204;2023-04-21T06:24:46;11.30;64.90
49132;DHT22;35149;51.196;6.204;2023-04-21T06:27:13;11.30;64.90
49132;DHT22;35149;51.196;6.204;2023-04-21T06:29:40;11.40;65.00
49132;DHT22;35149;51.196;6.204;2023-04-21T06:32:11;11.40;65.10
49132;DHT22;35149;51.196;6.204;2023-04-21T06:34:38;11.40;65.50
49132;DHT22;35149;51.196;6.204;2023-04-21T06:37:05;11.50;65.30
49132;DHT22;35149;51.196;6.204;2023-04-21T06:39:31;11.50;65.30
49132;DHT22;35149;51.196;6.204;2023-04-21T06:41:58;11.50;65.40
49132;DHT22;35149;51.196;6.204;2023-04-21T06:44:25;11.50;65.40
49132;DHT22;35149;51.196;6.204;2023-04-21T06:46:52;11.60;65.60
49132;DHT22;35149;51.196;6.204;2023-04-21T06:49:19;11.60;65.60
49132;DHT22;35149;51.196;6.204;2023-04-21T06:51:46;11.60;65.60
49132;DHT22;35149;51.196;6.204;2023-04-21T06:54:12;11.70;65.70
49132;DHT22;35149;51.196;6.204;2023-04-21T06:56:42;11.70;65.70
49132;DHT22;35149;51.196;6.204;2023-04-21T06:59:08;11.70;65.60
49132;DHT22;35149;51.196;6.204;2023-04-21T07:01:35;11.70;65.60
49132;DHT22;35149;51.196;6.204;2023-04-21T07:04:02;11.80;65.70
49132;DHT22;35149;51.196;6.204;2023-04-21T07:06:31;11.80;65.80
49132;DHT22;35149;51.196;6.204;2023-04-21T07:08:58;11.90;65.90
49132;DHT22;35149;51.196;6.204;2023-04-21T07:11:25;11.90;65.90
49132;DHT22;35149;51.196;6.204;2023-04-21T07:13:53;12.00;65.80
49132;DHT22;35149;51.196;6.204;2023-04-21T07:16:21;12.00;66.00
49132;DHT22;35149;51.196;6.204;2023-04-21T07:18:47;12.00;65.70
49132;DHT22;35149;51.196;6.204;2023-04-21T07:21:14;12.00;65.60
49132;DHT22;35149;51.196;6.204;2023-04-21T07:23:41;12.10;65.40
49132;DHT22;35149;51.196;6.204;2023-04-21T07:26:07;12.10;65.30
49132;DHT22;35149;51.196;6.204;2023-04-21T07:28:34;12.10;65.20
49132;DHT22;35149;51.196;6.204;2023-04-21T07:31:01;12.20;65.10
49132;DHT22;35149;51.196;6.204;2023-04-21T07:33:29;12.20;65.00
49132;DHT22;35149;51.196;6.204;2023-04-21T07:35:57;12.20;64.90
49132;DHT22;35149;51.196;6.204;2023-04-21T07:38:24;12.30;64.90
49132;DHT22;35149;51.196;6.204;2023-04-21T07:40:50;12.30;65.00
49132;DHT22;35149;51.196;6.204;2023-04-21T07:43:17;12.30;64.80
49132;DHT22;35149;51.196;6.204;2023-04-21T07:45:45;12.40;64.90
49132;DHT22;35149;51.196;6.204;2023-04-21T07:48:11;12.40;64.90
49132;DHT22;35149;51.196;6.204;2023-04-21T07:50:38;12.40;64.70
49132;DHT22;35149;51.196;6.204;2023-04-21T07:53:07;12.50;64.80
49132;DHT22;35149;51.196;6.204;2023-04-21T07:55:34;12.50;65.00
49132;DHT22;35149;51.196;6.204;2023-04-21T07:58:03;12.60;64.80
49132;DHT22;35149;51.196;6.204;2023-04-21T08:00:30;12.60;64.90
49132;DHT22;35149;51.196;6.204;2023-04-21T08:02:57;12.60;65.00
49132;DHT22;35149;51.196;6.204;2023-04-21T08:05:27;12.70;64.90
49132;DHT22;35149;51.196;6.204;2023-04-21T08:08:00;12.80;64.90
49132;DHT22;35149;51.196;6.204;2023-04-21T08:10:27;12.80;64.70
49132;DHT22;35149;51.196;6.204;2023-04-21T08:12:54;12.80;64.90
49132;DHT22;35149;51.196;6.204;2023-04-21T08:15:21;12.80;64.90
49132;DHT22;35149;51.196;6.204;2023-04-21T08:17:49;12.90;65.60
49132;DHT22;35149;51.196;6.204;2023-04-21T08:20:16;13.00;65.10
49132;DHT22;35149;51.196;6.204;2023-04-21T08:22:42;13.00;64.90
49132;DHT22;35149;51.196;6.204;2023-04-21T08:25:12;13.00;64.80
49132;DHT22;35149;51.196;6.204;2023-04-21T08:27:39;13.10;64.90
49132;DHT22;35149;51.196;6.204;2023-04-21T08:30:09;13.20;65.00
49132;DHT22;35149;51.196;6.204;2023-04-21T08:32:36;13.20;64.90
49132;DHT22;35149;51.196;6.204;2023-04-21T08:35:03;13.20;65.10
49132;DHT22;35149;51.196;6.204;2023-04-21T08:37:30;13.30;65.10
49132;DHT22;35149;51.196;6.204;2023-04-21T08:39:56;13.40;65.60
49132;DHT22;35149;51.196;6.204;2023-04-21T08:42:23;13.50;65.30
49132;DHT22;35149;51.196;6.204;2023-04-21T08:44:50;13.50;65.20
49132;DHT22;35149;51.196;6.204;2023-04-21T08:47:17;13.60;65.00
49132;DHT22;35149;51.196;6.204;2023-04-21T08:49:47;13.70;65.00
49132;DHT22;35149;51.196;6.204;2023-04-21T08:52:15;13.70;65.00
49132;DHT22;35149;51.196;6.204;2023-04-21T08:54:43;13.80;64.80
49132;DHT22;35149;51.196;6.204;2023-04-21T08:57:09;13.90;65.00
49132;DHT22;35149;51.196;6.204;2023-04-21T08:59:39;14.00;65.10
49132;DHT22;35149;51.196;6.204;2023-04-21T09:02:10;14.00;64.70
49132;DHT22;35149;51.196;6.204;2023-04-21T09:04:39;14.10;64.40
49132;DHT22;35149;51.196;6.204;2023-04-21T09:07:07;14.10;64.80
49132;DHT22;35149;51.196;6.204;2023-04-21T09:09:51;14.20;64.80
49132;DHT22;35149;51.196;6.204;2023-04-21T09:12:18;14.30;65.20
49132;DHT22;35149;51.196;6.204;2023-04-21T09:14:45;14.40;64.40
49132;DHT22;35149;51.196;6.204;2023-04-21T09:17:14;14.50;64.40
49132;DHT22;35149;51.196;6.204;2023-04-21T09:19:44;14.60;64.50
49132;DHT22;35149;51.196;6.204;2023-04-21T09:22:15;14.70;64.60
49132;DHT22;35149;51.196;6.204;2023-04-21T09:24:49;14.90;64.30
49132;DHT22;35149;51.196;6.204;2023-04-21T09:27:22;15.00;63.70
49132;DHT22;35149;51.196;6.204;2023-04-21T09:29:48;15.10;62.80
49132;DHT22;35149;51.196;6.204;2023-04-21T09:32:18;15.20;62.70
49132;DHT22;35149;51.196;6.204;2023-04-21T09:34:45;15.30;62.90
49132;DHT22;35149;51.196;6.204;2023-04-21T09:37:13;15.30;62.10
49132;DHT22;35149;51.196;6.204;2023-04-21T09:39:48;15.40;62.30
49132;DHT22;35149;51.196;6.204;2023-04-21T09:42:31;15.50;61.90
49132;DHT22;35149;51.196;6.204;2023-04-21T09:44:59;15.60;61.80
49132;DHT22;35149;51.196;6.204;2023-04-21T09:47:32;15.60;62.00
49132;DHT22;35149;51.196;6.204;2023-04-21T09:50:03;15.70;61.90
49132;DHT22;35149;51.196;6.204;2023-04-21T09:52:30;15.70;61.50
49132;DHT22;35149;51.196;6.204;2023-04-21T09:55:01;15.80;61.10
49132;DHT22;35149;51.196;6.204;2023-04-21T09:57:31;15.80;60.70
49132;DHT22;35149;51.196;6.204;2023-04-21T10:00:04;15.80;60.60
49132;DHT22;35149;51.196;6.204;2023-04-21T10:02:34;15.90;60.80
49132;DHT22;35149;51.196;6.204;2023-04-21T10:05:04;15.90;60.80
49132;DHT22;35149;51.196;6.204;2023-04-21T10:07:32;15.90;60.80
49132;DHT22;35149;51.196;6.204;2023-04-21T10:09:58;16.00;61.00
49132;DHT22;35149;51.196;6.204;2023-04-21T10:12:26;16.00;60.60
49132;DHT22;35149;51.196;6.204;2023-04-21T10:14:54;16.00;60.20
49132;DHT22;35149;51.196;6.204;2023-04-21T10:17:22;16.20;60.30
49132;DHT22;35149;51.196;6.204;2023-04-21T10:19:57;16.20;60.20
49132;DHT22;35149;51.196;6.204;2023-04-21T10:22:32;16.30;60.20
49132;DHT22;35149;51.196;6.204;2023-04-21T10:25:01;16.50;60.50
49132;DHT22;35149;51.196;6.204;2023-04-21T10:27:36;16.60;60.10
49132;DHT22;35149;51.196;6.204;2023-04-21T10:30:22;16.70;59.70
49132;DHT22;35149;51.196;6.204;2023-04-21T10:33:01;16.90;58.90
49132;DHT22;35149;51.196;6.204;2023-04-21T10:35:56;17.00;59.10
49132;DHT22;35149;51.196;6.204;2023-04-21T10:38:40;17.10;57.70
49132;DHT22;35149;51.196;6.204;2023-04-21T10:41:25;17.20;57.00
49132;DHT22;35149;51.196;6.204;2023-04-21T10:49:40;17.50;57.10
49132;DHT22;35149;51.196;6.204;2023-04-21T10:52:07;17.60;57.50
49132;DHT22;35149;51.196;6.204;2023-04-21T10:57:10;17.80;56.10
49132;DHT22;35149;51.196;6.204;2023-04-21T10:59:38;17.90;55.80
49132;DHT22;35149;51.196;6.204;2023-04-21T11:02:11;18.00;55.70
49132;DHT22;35149;51.196;6.204;2023-04-21T11:04:38;18.10;55.10
49132;DHT22;35149;51.196;6.204;2023-04-21T11:09:37;18.30;54.40
49132;DHT22;35149;51.196;6.204;2023-04-21T11:12:06;18.40;54.70
49132;DHT22;35149;51.196;6.204;2023-04-21T11:14:35;18.50;54.00
49132;DHT22;35149;51.196;6.204;2023-04-21T11:17:03;18.50;54.30
49132;DHT22;35149;51.196;6.204;2023-04-21T11:19:33;18.60;53.70
49132;DHT22;35149;51.196;6.204;2023-04-21T11:22:00;18.70;53.00
49132;DHT22;35149;51.196;6.204;2023-04-21T11:24:26;18.70;52.60
49132;DHT22;35149;51.196;6.204;2023-04-21T11:26:53;18.70;52.70
49132;DHT22;35149;51.196;6.204;2023-04-21T11:29:20;18.70;52.90
49132;DHT22;35149;51.196;6.204;2023-04-21T11:31:46;18.70;52.80
49132;DHT22;35149;51.196;6.204;2023-04-21T11:34:18;18.70;52.50
49132;DHT22;35149;51.196;6.204;2023-04-21T11:36:46;18.80;52.10
49132;DHT22;35149;51.196;6.204;2023-04-21T11:39:16;18.80;52.30
49132;DHT22;35149;51.196;6.204;2023-04-21T11:41:49;18.90;52.30
49132;DHT22;35149;51.196;6.204;2023-04-21T11:44:37;18.90;52.70
49132;DHT22;35149;51.196;6.204;2023-04-21T11:49:46;19.00;51.70
49132;DHT22;35149;51.196;6.204;2023-04-21T11:52:32;19.10;51.70
49132;DHT22;35149;51.196;6.204;2023-04-21T11:55:09;19.20;51.80
49132;DHT22;35149;51.196;6.204;2023-04-21T11:57:39;19.30;51.60
49132;DHT22;35149;51.196;6.204;2023-04-21T12:00:08;19.40;52.00
49132;DHT22;35149;51.196;6.204;2023-04-21T12:02:39;19.40;51.20
49132;DHT22;35149;51.196;6.204;2023-04-21T12:05:09;19.50;51.10
49132;DHT22;35149;51.196;6.204;2023-04-21T12:07:38;19.60;50.90
49132;DHT22;35149;51.196;6.204;2023-04-21T12:10:13;19.60;50.90
49132;DHT22;35149;51.196;6.204;2023-04-21T12:12:41;19.70;50.10
49132;DHT22;35149;51.196;6.204;2023-04-21T12:15:09;19.70;50.10
49132;DHT22;35149;51.196;6.204;2023-04-21T12:17:43;19.70;50.30
49132;DHT22;35149;51.196;6.204;2023-04-21T12:20:11;19.80;50.30
49132;DHT22;35149;51.196;6.204;2023-04-21T12:22:38;19.80;50.30
49132;DHT22;35149;51.196;6.204;2023-04-21T12:25:05;19.90;50.50
49132;DHT22;35149;51.196;6.204;2023-04-21T12:27:32;19.90;50.00
49132;DHT22;35149;51.196;6.204;2023-04-21T12:29:59;20.20;50.20
49132;DHT22;35149;51.196;6.204;2023-04-21T12:32:25;20.10;50.00
49132;DHT22;35149;51.196;6.204;2023-04-21T12:34:52;20.30;49.40
49132;DHT22;35149;51.196;6.204;2023-04-21T12:37:19;20.30;49.00
49132;DHT22;35149;51.196;6.204;2023-04-21T12:39:45;20.50;48.70
49132;DHT22;35149;51.196;6.204;2023-04-21T12:42:12;20.60;48.80
49132;DHT22;35149;51.196;6.204;2023-04-21T12:44:41;20.70;48.20
49132;DHT22;35149;51.196;6.204;2023-04-21T12:47:08;20.70;48.00
49132;DHT22;35149;51.196;6.204;2023-04-21T12:49:34;20.80;48.00
49132;DHT22;35149;51.196;6.204;2023-04-21T12:52:01;20.90;48.80
49132;DHT22;35149;51.196;6.204;2023-04-21T12:54:30;21.10;48.30
49132;DHT22;35149;51.196;6.204;2023-04-21T12:56:57;21.20;48.10
49132;DHT22;35149;51.196;6.204;2023-04-21T12:59:24;21.30;48.00
49132;DHT22;35149;51.196;6.204;2023-04-21T13:01:51;21.40;47.70
49132;DHT22;35149;51.196;6.204;2023-04-21T13:04:18;21.60;47.70
49132;DHT22;35149;51.196;6.204;2023-04-21T13:06:45;21.60;47.30
49132;DHT22;35149;51.196;6.204;2023-04-21T13:09:12;21.70;47.20
49132;DHT22;35149;51.196;6.204;2023-04-21T13:11:38;21.80;47.20
49132;DHT22;35149;51.196;6.204;2023-04-21T13:14:07;21.90;46.20
49132;DHT22;35149;51.196;6.204;2023-04-21T13:16:34;22.10;46.00
49132;DHT22;35149;51.196;6.204;2023-04-21T13:19:01;22.20;45.50
49132;DHT22;35149;51.196;6.204;2023-04-21T13:21:27;22.30;45.80
49132;DHT22;35149;51.196;6.204;2023-04-21T13:23:54;22.40;45.70
49132;DHT22;35149;51.196;6.204;2023-04-21T13:26:23;22.60;44.70
49132;DHT22;35149;51.196;6.204;2023-04-21T13:28:50;22.70;44.60
49132;DHT22;35149;51.196;6.204;2023-04-21T13:31:19;22.90;44.20
49132;DHT22;35149;51.196;6.204;2023-04-21T13:33:46;23.10;44.00
49132;DHT22;35149;51.196;6.204;2023-04-21T13:36:13;23.40;43.60
49132;DHT22;35149;51.196;6.204;2023-04-21T13:38:39;23.70;43.00
49132;DHT22;35149;51.196;6.204;2023-04-21T13:41:07;24.10;43.30
49132;DHT22;35149;51.196;6.204;2023-04-21T13:43:34;24.60;43.60
49132;DHT22;35149;51.196;6.204;2023-04-21T13:46:01;25.30;43.40
49132;DHT22;35149;51.196;6.204;2023-04-21T13:48:28;26.30;43.00
49132;DHT22;35149;51.196;6.204;2023-04-21T13:50:55;27.30;42.00
49132;DHT22;35149;51.196;6.204;2023-04-21T13:53:21;28.20;40.70
49132;DHT22;35149;51.196;6.204;2023-04-21T13:55:48;29.00;39.30
49132;DHT22;35149;51.196;6.204;2023-04-21T13:58:15;29.70;37.30
49132;DHT22;35149;51.196;6.204;2023-04-21T14:00:46;30.30;36.40
49132;DHT22;35149;51.196;6.204;2023-04-21T14:03:15;30.80;35.60
49132;DHT22;35149;51.196;6.204;2023-04-21T14:05:50;30.90;33.50
49132;DHT22;35149;51.196;6.204;2023-04-21T14:08:19;30.90;32.80
49132;DHT22;35149;51.196;6.204;2023-04-21T14:10:47;30.90;33.00
49132;DHT22;35149;51.196;6.204;2023-04-21T14:13:14;31.10;33.80
49132;DHT22;35149;51.196;6.204;2023-04-21T14:16:00;31.50;33.70
49132;DHT22;35149;51.196;6.204;2023-04-21T14:18:33;31.90;33.30
49132;DHT22;35149;51.196;6.204;2023-04-21T14:21:00;32.20;31.90
49132;DHT22;35149;51.196;6.204;2023-04-21T14:23:29;32.20;30.90
49132;DHT22;35149;51.196;6.204;2023-04-21T14:25:56;32.10;30.50
49132;DHT22;35149;51.196;6.204;2023-04-21T14:28:23;31.80;30.60
49132;DHT22;35149;51.196;6.204;2023-04-21T14:30:49;31.40;30.90
49132;DHT22;35149;51.196;6.204;2023-04-21T14:33:16;31.10;31.30
49132;DHT22;35149;51.196;6.204;2023-04-21T14:35:43;30.90;31.50
49132;DHT22;35149;51.196;6.204;2023-04-21T14:38:09;30.80;31.10
49132;DHT22;35149;51.196;6.204;2023-04-21T14:40:36;30.60;31.00
49132;DHT22;35149;51.196;6.204;2023-04-21T14:43:03;30.30;30.70
49132;DHT22;35149;51.196;6.204;2023-04-21T14:45:29;30.00;31.40
49132;DHT22;35149;51.196;6.204;2023-04-21T14:47:57;29.70;32.00
49132;DHT22;35149;51.196;6.204;2023-04-21T14:50:23;29.60;32.30
49132;DHT22;35149;51.196;6.204;2023-04-21T14:52:50;29.60;32.60
49132;DHT22;35149;51.196;6.204;2023-04-21T14:55:17;29.60;32.90
49132;DHT22;35149;51.196;6.204;2023-04-21T14:57:46;29.80;33.30
49132;DHT22;35149;51.196;6.204;2023-04-21T15:00:13;30.30;34.30
49132;DHT22;35149;51.196;6.204;2023-04-21T15:02:46;30.90;33.70
49132;DHT22;35149;51.196;6.204;2023-04-21T15:05:14;31.80;33.00
49132;DHT22;35149;51.196;6.204;2023-04-21T15:07:40;32.60;32.50
49132;DHT22;35149;51.196;6.204;2023-04-21T15:10:08;33.40;31.70
49132;DHT22;35149;51.196;6.204;2023-04-21T15:12:36;33.90;30.20
49132;DHT22;35149;51.196;6.204;2023-04-21T15:15:06;34.10;29.50
49132;DHT22;35149;51.196;6.204;2023-04-21T15:17:33;34.00;29.20
49132;DHT22;35149;51.196;6.204;2023-04-21T15:19:59;33.70;28.90
49132;DHT22;35149;51.196;6.204;2023-04-21T15:22:26;33.30;29.10
49132;DHT22;35149;51.196;6.204;2023-04-21T15:24:53;32.70;29.00
49132;DHT22;35149;51.196;6.204;2023-04-21T15:27:20;32.20;29.30
49132;DHT22;35149;51.196;6.204;2023-04-21T15:29:47;31.60;29.40
49132;DHT22;35149;51.196;6.204;2023-04-21T15:32:13;31.00;29.60
49132;DHT22;35149;51.196;6.204;2023-04-21T15:34:40;30.30;29.90
49132;DHT22;35149;51.196;6.204;2023-04-21T15:37:07;29.70;30.30
49132;DHT22;35149;51.196;6.204;2023-04-21T15:39:33;29.20;30.70
49132;DHT22;35149;51.196;6.204;2023-04-21T15:42:00;28.60;31.10
49132;DHT22;35149;51.196;6.204;2023-04-21T15:44:29;28.10;31.60
49132;DHT22;35149;51.196;6.204;2023-04-21T15:46:56;27.60;32.30
49132;DHT22;35149;51.196;6.204;2023-04-21T15:49:23;27.00;32.70
49132;DHT22;35149;51.196;6.204;2023-04-21T15:51:51;26.60;33.40